createdAt,value
2023-03-30T00:01:05.301Z,11.79
2023-03-30T00:06:07.315Z,11.81
2023-03-30T00:11:08.593Z,11.79
2023-03-30T00:16:09.851Z,11.77
2023-03-30T00:21:11.076Z,11.77
2023-03-30T00:26:13.045Z,11.79
2023-03-30T00:31:14.247Z,11.86
2023-03-30T00:36:15.728Z,11.86
2023-03-30T00:41:17.782Z,11.78
2023-03-30T00:46:18.998Z,11.74
2023-03-30T00:51:20.414Z,11.83
2023-03-30T00:56:22.936Z,12.02
2023-03-30T01:01:28.696Z,12.17
2023-03-30T01:06:31.599Z,12.15
2023-03-30T01:11:32.845Z,12.09
2023-03-30T01:16:35.075Z,12.08
2023-03-30T01:21:36.255Z,12.11
2023-03-30T01:26:38.044Z,12.22
2023-03-30T01:31:39.317Z,12.37
2023-03-30T01:36:41.714Z,12.50
2023-03-30T01:41:42.963Z,12.58
2023-03-30T01:46:45.011Z,12.61
2023-03-30T01:51:46.323Z,12.63
2023-03-30T01:56:47.561Z,12.68
2023-03-30T02:01:50.461Z,12.62
2023-03-30T02:06:51.769Z,12.74
2023-03-30T02:11:53.835Z,12.80
2023-03-30T02:16:55.066Z,12.81
2023-03-30T02:21:56.301Z,12.81
2023-03-30T02:26:57.536Z,12.84
2023-03-30T02:31:58.726Z,12.84
2023-03-30T02:37:00.302Z,12.85
2023-03-30T02:42:01.589Z,12.89
2023-03-30T02:47:02.751Z,12.85
2023-03-30T02:52:03.945Z,12.87
2023-03-30T02:57:05.178Z,12.90
2023-03-30T03:02:06.856Z,12.92
2023-03-30T03:07:08.105Z,12.78
2023-03-30T03:12:09.379Z,12.64
2023-03-30T03:17:10.655Z,12.64
2023-03-30T03:22:12.013Z,12.60
2023-03-30T03:27:13.138Z,12.68
2023-03-30T03:32:14.334Z,12.74
2023-03-30T03:37:15.536Z,12.75
2023-03-30T03:42:16.763Z,12.79
2023-03-30T03:47:18.201Z,12.71
2023-03-30T03:52:19.401Z,12.73
2023-03-30T03:57:23.770Z,12.78
2023-03-30T04:02:25.190Z,12.79
2023-03-30T04:07:26.511Z,12.74
2023-03-30T04:12:27.642Z,12.60
2023-03-30T04:17:28.883Z,12.61
2023-03-30T04:22:33.343Z,12.72
2023-03-30T04:27:34.548Z,12.80
2023-03-30T04:32:38.641Z,12.81
2023-03-30T04:37:42.037Z,12.83
2023-03-30T04:42:49.934Z,12.85
2023-03-30T04:47:51.311Z,12.86
2023-03-30T04:52:52.517Z,12.85
2023-03-30T04:57:53.658Z,12.94
2023-03-30T05:02:54.934Z,13.01
2023-03-30T05:07:56.223Z,13.01
2023-03-30T05:12:57.496Z,12.99
2023-03-30T05:17:58.755Z,12.92
2023-03-30T05:23:00.312Z,12.86
2023-03-30T05:28:02.148Z,12.80
2023-03-30T05:33:03.421Z,12.79
2023-03-30T05:38:04.707Z,12.80
2023-03-30T05:43:06.170Z,12.77
2023-03-30T05:48:07.436Z,12.80
2023-03-30T05:53:08.622Z,12.80
2023-03-30T05:58:09.819Z,12.79
2023-03-30T06:03:11.156Z,12.85
2023-03-30T06:08:13.435Z,12.85
2023-03-30T06:13:14.639Z,12.91
2023-03-30T06:18:15.973Z,13.23
2023-03-30T06:23:17.208Z,13.41
2023-03-30T06:28:18.334Z,13.61
2023-03-30T06:33:19.699Z,13.71
2023-03-30T06:38:21.196Z,13.81
2023-03-30T06:43:22.407Z,13.87
2023-03-30T06:48:26.741Z,13.82
2023-03-30T06:53:28.284Z,13.78
2023-03-30T06:58:29.587Z,13.74
2023-03-30T07:03:30.902Z,13.84
2023-03-30T07:08:32.128Z,13.80
2023-03-30T07:13:33.324Z,13.95
2023-03-30T07:18:34.512Z,14.15
2023-03-30T07:23:35.889Z,14.33
2023-03-30T07:28:43.309Z,14.34
2023-03-30T07:33:44.503Z,14.35
2023-03-30T07:38:46.179Z,14.31
2023-03-30T07:43:47.402Z,14.34
2023-03-30T07:48:48.610Z,14.30
2023-03-30T07:53:49.891Z,14.31
2023-03-30T07:58:51.068Z,14.41
2023-03-30T08:03:52.374Z,14.50
2023-03-30T08:08:53.667Z,14.61
2023-03-30T08:13:54.827Z,14.66
2023-03-30T08:18:56.478Z,14.80
2023-03-30T08:23:58.917Z,15.02
2023-03-30T08:29:00.431Z,15.02
2023-03-30T08:34:03.499Z,14.92
2023-03-30T08:39:05.112Z,14.92
2023-03-30T08:44:06.684Z,14.94
2023-03-30T08:49:07.867Z,14.74
2023-03-30T08:54:09.074Z,14.42
2023-03-30T08:59:10.532Z,14.29
2023-03-30T09:04:11.714Z,14.22
2023-03-30T09:09:13.161Z,14.18
2023-03-30T09:14:14.329Z,14.33
2023-03-30T09:19:16.338Z,14.41
2023-03-30T09:24:17.520Z,14.50
2023-03-30T09:29:19.239Z,14.80
2023-03-30T09:34:20.454Z,14.58
2023-03-30T09:39:21.608Z,13.88
2023-03-30T09:44:22.793Z,13.12
2023-03-30T09:49:23.928Z,12.14
2023-03-30T09:54:26.102Z,11.34
2023-03-30T09:59:28.317Z,10.95
2023-03-30T10:04:29.492Z,10.65
2023-03-30T10:09:30.709Z,10.57
2023-03-30T10:14:32.017Z,10.53
2023-03-30T10:19:34.384Z,10.55
2023-03-30T10:24:37.402Z,10.62
2023-03-30T10:29:38.585Z,10.87
2023-03-30T10:34:39.776Z,11.58
2023-03-30T10:39:41.071Z,11.64
2023-03-30T10:44:42.282Z,11.82
2023-03-30T10:49:43.433Z,12.43
2023-03-30T10:54:44.585Z,12.82
2023-03-30T10:59:45.764Z,13.09
2023-03-30T11:04:47.286Z,14.33
2023-03-30T11:09:48.496Z,14.96
2023-03-30T11:14:49.679Z,15.87
2023-03-30T11:19:51.277Z,16.49
2023-03-30T11:24:52.556Z,16.07
2023-03-30T11:29:53.759Z,14.79
2023-03-30T11:34:54.975Z,14.10
2023-03-30T11:39:56.249Z,14.10
2023-03-30T11:44:57.454Z,15.90
2023-03-30T11:49:58.626Z,16.43
2023-03-30T11:55:03.707Z,15.70
2023-03-30T12:00:09.704Z,15.28
2023-03-30T12:05:11.244Z,15.29
2023-03-30T12:10:12.422Z,15.62
2023-03-30T12:15:13.630Z,15.41
2023-03-30T12:20:14.802Z,15.28
2023-03-30T12:25:16.029Z,15.62
2023-03-30T12:30:17.344Z,15.29
2023-03-30T12:35:18.604Z,14.20
2023-03-30T12:40:26.055Z,13.57
2023-03-30T12:45:27.277Z,13.08
2023-03-30T12:50:28.560Z,12.92
2023-03-30T12:55:29.825Z,13.05
2023-03-30T13:00:31.020Z,13.37
2023-03-30T13:05:32.225Z,13.34
2023-03-30T13:10:35.201Z,13.15
2023-03-30T13:15:36.418Z,13.03
2023-03-30T13:20:37.671Z,13.02
2023-03-30T13:25:39.468Z,12.83
2023-03-30T13:30:40.782Z,12.53
2023-03-30T13:35:42.040Z,12.63
2023-03-30T13:40:57.783Z,12.53
2023-03-30T13:46:13.856Z,12.29
2023-03-30T13:51:17.241Z,12.26
2023-03-30T13:56:18.370Z,12.55
2023-03-30T14:01:19.628Z,12.92
2023-03-30T14:06:21.245Z,13.49
2023-03-30T14:11:22.505Z,13.81
2023-03-30T14:16:23.759Z,13.96
2023-03-30T14:21:25.185Z,13.98
2023-03-30T14:26:26.724Z,13.92
2023-03-30T14:31:28.029Z,14.11
2023-03-30T14:36:29.296Z,13.96
2023-03-30T14:41:31.486Z,14.20
2023-03-30T14:46:32.695Z,14.79
2023-03-30T14:51:34.148Z,14.92
2023-03-30T14:56:35.551Z,14.89
2023-03-30T15:01:36.747Z,14.73
2023-03-30T15:06:38.138Z,14.93
2023-03-30T15:11:39.665Z,15.06
2023-03-30T15:16:41.139Z,15.28
2023-03-30T15:21:43.173Z,15.42
2023-03-30T15:26:44.357Z,15.34
2023-03-30T15:31:45.660Z,15.25
2023-03-30T15:36:46.839Z,15.17
2023-03-30T15:41:48.039Z,15.08
2023-03-30T15:46:49.333Z,15.16
2023-03-30T15:51:51.733Z,15.27
2023-03-30T15:56:53.061Z,15.27
2023-03-30T16:01:54.471Z,15.09
2023-03-30T16:06:55.761Z,14.90
2023-03-30T16:11:57.168Z,14.78
2023-03-30T16:16:58.373Z,14.03
2023-03-30T16:21:59.541Z,13.34
2023-03-30T16:27:01.381Z,13.29
2023-03-30T16:32:02.608Z,13.37
2023-03-30T16:37:03.944Z,13.14
2023-03-30T16:42:05.317Z,13.09
2023-03-30T16:47:07.204Z,13.10
2023-03-30T16:52:08.777Z,13.16
2023-03-30T16:57:10.292Z,12.89
2023-03-30T17:02:14.830Z,12.69
2023-03-30T17:07:18.102Z,12.81
2023-03-30T17:12:19.304Z,13.26
2023-03-30T17:17:21.495Z,13.46
2023-03-30T17:22:22.863Z,13.53
2023-03-30T17:27:25.828Z,13.54
2023-03-30T17:32:26.969Z,13.63
2023-03-30T17:37:28.172Z,13.61
2023-03-30T17:42:29.351Z,13.55
2023-03-30T17:47:30.637Z,13.39
2023-03-30T17:52:31.858Z,13.30
2023-03-30T17:57:33.088Z,13.18
2023-03-30T18:02:34.363Z,13.01
2023-03-30T18:07:35.629Z,12.89
2023-03-30T18:12:36.847Z,12.92
2023-03-30T18:17:38.129Z,12.93
2023-03-30T18:22:39.371Z,12.91
2023-03-30T18:27:42.734Z,12.90
2023-03-30T18:32:47.408Z,12.89
2023-03-30T18:37:48.889Z,12.85
2023-03-30T18:42:50.177Z,12.84
2023-03-30T18:47:51.483Z,12.75
2023-03-30T18:52:52.772Z,12.56
2023-03-30T18:57:53.982Z,12.37
2023-03-30T19:02:56.543Z,12.19
2023-03-30T19:07:57.840Z,12.16
2023-03-30T19:12:59.069Z,12.27
2023-03-30T19:18:00.581Z,12.45
2023-03-30T19:23:01.775Z,12.50
2023-03-30T19:28:04.248Z,12.44
2023-03-30T19:33:05.754Z,12.39
2023-03-30T19:38:06.939Z,12.30
2023-03-30T19:43:08.385Z,12.23
2023-03-30T19:48:10.575Z,12.27
2023-03-30T19:53:11.798Z,12.24
2023-03-30T19:58:13.068Z,12.26
2023-03-30T20:03:14.513Z,12.29
2023-03-30T20:08:23.931Z,12.31
2023-03-30T20:13:27.195Z,12.34
2023-03-30T20:18:30.883Z,12.32
2023-03-30T20:23:32.125Z,12.23
2023-03-30T20:28:33.348Z,12.13
2023-03-30T20:33:34.680Z,12.04
2023-03-30T20:38:39.525Z,11.96
2023-03-30T20:43:55.699Z,11.86
2023-03-30T20:49:01.788Z,11.70
2023-03-30T20:54:03.206Z,11.52
2023-03-30T20:59:04.444Z,11.32
2023-03-30T21:04:05.725Z,11.17
2023-03-30T21:09:07.099Z,11.02
2023-03-30T21:14:08.556Z,10.99
2023-03-30T21:19:09.794Z,10.89
2023-03-30T21:24:11.020Z,10.82
2023-03-30T21:29:12.310Z,10.72
2023-03-30T21:34:14.544Z,10.62
2023-03-30T21:39:15.830Z,10.52
2023-03-30T21:44:17.063Z,10.37
2023-03-30T21:49:18.265Z,10.33
2023-03-30T21:54:19.567Z,10.39
2023-03-30T21:59:20.704Z,10.51
2023-03-30T22:04:21.944Z,10.61
2023-03-30T22:09:23.152Z,10.70
2023-03-30T22:14:24.408Z,10.75
2023-03-30T22:19:25.651Z,10.75
2023-03-30T22:24:26.875Z,10.73
2023-03-30T22:29:28.057Z,10.69
2023-03-30T22:34:29.296Z,10.60
2023-03-30T22:39:30.537Z,10.46
2023-03-30T22:44:31.718Z,10.38
2023-03-30T22:49:32.907Z,10.38
2023-03-30T22:54:34.199Z,10.35
2023-03-30T22:59:35.659Z,10.26
2023-03-30T23:04:36.887Z,10.13
2023-03-30T23:09:38.620Z,10.01
2023-03-30T23:14:39.862Z,9.96
2023-03-30T23:19:41.062Z,10.00
2023-03-30T23:24:42.215Z,9.99
2023-03-30T23:29:43.416Z,9.93
2023-03-30T23:34:44.624Z,9.86
2023-03-30T23:39:45.932Z,9.93
2023-03-30T23:44:47.149Z,10.02
2023-03-30T23:49:48.367Z,10.12
2023-03-30T23:54:52.370Z,10.22
2023-03-30T23:59:53.644Z,10.28
